Portada
METAR-TAF:

METAR-TAF

Aeroports :

Aeroport Internacional de Xangai-Pudong

Xangai-Pudong, Xina

latitud: 31-07N, longitud: 121-46E, altitud: 4 m

Observació

L'informe es va fer fa 20 minuts, a les 03:30 UTC
Vent 16 kt del Nord
Temperatura 18°C
Humitat 59%
Pressió 1030 hPa
Visibilitat 10 km o més
Cel ennuvolat a una alçada de 4000 ft

METAR: ZSPD 150330Z 35008MPS 9999 BKN040 18/10 Q1030 NOSIG

Hora: 11:50 (03:50 UTC)

Pronòstic

L'informe es va fer fa 6 hores i 37 minuts, a les 21:13 UTC
Pronòstic vàlid del 15 a les 00 UTC al 15 a les 24 UTC
Vent 14 kt del Nord
Visibilitat: 5000 m
Cel ennuvolat a una alçada de 2000 ft
calitja
Evolucionant progressivament
l' 15 a les 14 UTC al 15 a les 16 UTC
Vent 8 kt del Est/Nord-Est

TAF: ZSPD 142113Z 1500/1524 36007MPS 5000 HZ BKN020 TX20/1506Z TN16/1521Z BECMG 1514/1516 06004MPS

Observacions i pronòstics meteorològics de més de 4000 aeroports (METAR i TAF).

Les estacions disponibles són els punts grocs i vermells al mapa.

Posi el ratolí al punt desitjat per veure el nom de l'estació.

Feu clic per veure les observacions i els pronòstics meteorològics.

Per canviar el mapa: feu clic els botons verds amb una creu de color negre per apropar; al botó verd amb un guió per allunyar la imatge; o en les fletxes verdes per a mapes adjacents.


METAR-TAF: